Time;durP1;ratioP1;P1;durP2;ratioP2;P2;SDS_P1;SDS_P2;PMS_P1;PMS_P2;Temp;Humidity;BMP_temperature;BMP_pressure;BME280_temperature;BME280_humidity;BME280_pressure;Samples;Min_cycle;Max_cycle;Signal;HPM_P1;HPM_P2
2022/11/17 00:01:44;;;;;;;26.83;18.23;;;;;;;;;;4963469;28;20035;-79
2022/11/17 00:04:10;;;;;;;34.13;17.48;;;;;;;;;;4961111;28;20036;-80
2022/11/17 00:06:36;;;;;;;30.58;18.38;;;;;;;;;;4968412;28;20476;-80
2022/11/17 00:09:02;;;;;;;29.02;16.25;;;;;;;;;;4967979;28;20055;-81
2022/11/17 00:14:31;;;;;;;22.58;15.35;;;;;;;;;;4959994;28;20289;-82
2022/11/17 00:14:32;;;;;;;28.13;16.38;;;;;;;;;;4954398;28;20399;-80
2022/11/17 00:17:01;;;;;;;25.42;15.88;;;;;;;;;;4919119;28;20031;-83
2022/11/17 00:22:13;;;;;;;31.98;17.10;;;;;;;;;;4952407;29;20049;-80
2022/11/17 00:24:39;;;;;;;22.88;15.27;;;;;;;;;;4952288;28;20035;-83
2022/11/17 00:27:05;;;;;;;24.83;16.20;;;;;;;;;;4951724;28;20031;-79
2022/11/17 00:29:31;;;;;;;25.50;15.98;;;;;;;;;;4951384;28;20499;-79
2022/11/17 00:34:42;;;;;;;25.55;15.38;;;;;;;;;;4952950;28;20085;-81
2022/11/17 00:37:09;;;;;;;26.50;15.45;;;;;;;;;;4934352;28;20093;-80
2022/11/17 00:39:35;;;;;;;26.67;15.18;;;;;;;;;;4949076;28;20023;-81
2022/11/17 00:42:01;;;;;;;21.15;14.18;;;;;;;;;;4942083;28;20103;-82
2022/11/17 00:44:28;;;;;;;21.42;14.43;;;;;;;;;;4956263;28;20293;-81
2022/11/17 00:46:54;;;;;;;22.25;14.15;;;;;;;;;;4945512;28;20039;-80
2022/11/17 00:49:23;;;;;;;27.85;15.25;;;;;;;;;;4943201;29;20039;-79
2022/11/17 00:51:50;;;;;;;19.02;12.82;;;;;;;;;;4959848;28;20414;-79
2022/11/17 00:54:16;;;;;;;22.08;15.30;;;;;;;;;;4968330;28;20116;-79
2022/11/17 00:56:42;;;;;;;22.13;14.18;;;;;;;;;;4949326;28;20393;-81
2022/11/17 00:59:08;;;;;;;22.88;14.05;;;;;;;;;;4949397;28;20033;-81
2022/11/17 01:01:35;;;;;;;25.40;14.27;;;;;;;;;;4947712;28;20062;-81
2022/11/17 01:04:01;;;;;;;21.38;13.38;;;;;;;;;;4942715;28;20048;-82
2022/11/17 01:06:30;;;;;;;24.13;13.40;;;;;;;;;;4947055;28;20063;-83
2022/11/17 01:08:57;;;;;;;19.70;12.70;;;;;;;;;;4943770;28;20058;-84
2022/11/17 01:11:23;;;;;;;24.13;14.48;;;;;;;;;;4962000;28;20038;-81
2022/11/17 01:13:53;;;;;;;19.23;12.55;;;;;;;;;;4948132;28;20067;-80
2022/11/17 01:16:19;;;;;;;20.92;12.20;;;;;;;;;;4952352;28;20034;-81
2022/11/17 01:18:46;;;;;;;20.15;12.48;;;;;;;;;;4946950;28;20441;-80
2022/11/17 01:21:19;;;;;;;17.73;12.70;;;;;;;;;;4955910;28;20106;-79
2022/11/17 01:23:47;;;;;;;19.73;11.77;;;;;;;;;;4946177;28;20110;-82
2022/11/17 01:26:14;;;;;;;20.55;12.00;;;;;;;;;;4958098;28;20114;-79
2022/11/17 01:28:41;;;;;;;17.77;11.90;;;;;;;;;;4930391;29;20035;-79
2022/11/17 01:31:10;;;;;;;16.42;11.43;;;;;;;;;;4954978;28;20027;-80
2022/11/17 01:33:36;;;;;;;16.02;11.50;;;;;;;;;;4951281;29;20042;-78
2022/11/17 01:36:03;;;;;;;20.35;12.82;;;;;;;;;;4953168;28;20110;-79
2022/11/17 01:38:29;;;;;;;17.83;11.45;;;;;;;;;;4953378;28;20039;-80
2022/11/17 01:40:57;;;;;;;17.40;11.75;;;;;;;;;;4934221;28;20039;-82
2022/11/17 01:43:43;;;;;;;19.63;13.30;;;;;;;;;;4951053;28;20023;-80
2022/11/17 01:46:29;;;;;;;16.33;10.45;;;;;;;;;;4930822;28;20031;-81
2022/11/17 01:48:58;;;;;;;17.40;12.23;;;;;;;;;;4950657;29;20042;-79
2022/11/17 01:51:25;;;;;;;16.38;11.57;;;;;;;;;;4945164;28;20027;-81
2022/11/17 01:53:51;;;;;;;16.40;12.10;;;;;;;;;;4948311;28;20039;-79
2022/11/17 01:56:20;;;;;;;22.05;11.45;;;;;;;;;;4942825;28;20028;-79
2022/11/17 01:58:49;;;;;;;17.17;12.18;;;;;;;;;;4950712;29;20027;-79
2022/11/17 02:01:15;;;;;;;19.58;11.88;;;;;;;;;;4949012;28;20055;-81
2022/11/17 02:03:42;;;;;;;15.77;10.85;;;;;;;;;;4954481;29;20122;-78
2022/11/17 02:06:12;;;;;;;16.88;11.98;;;;;;;;;;4956628;28;20140;-79
2022/11/17 02:08:41;;;;;;;15.95;11.65;;;;;;;;;;4952669;29;20059;-82
2022/11/17 02:11:11;;;;;;;19.38;12.20;;;;;;;;;;4945835;28;20101;-82
2022/11/17 02:13:37;;;;;;;17.33;12.63;;;;;;;;;;4953991;28;20036;-83
2022/11/17 02:16:20;;;;;;;16.50;11.38;;;;;;;;;;4942132;28;20027;-82
2022/11/17 02:18:46;;;;;;;17.08;11.90;;;;;;;;;;4947919;28;20034;-83
2022/11/17 02:21:38;;;;;;;18.60;12.25;;;;;;;;;;4958145;28;20729;-83
2022/11/17 02:24:19;;;;;;;18.92;10.77;;;;;;;;;;4948584;28;20447;-82
2022/11/17 02:26:58;;;;;;;19.13;11.48;;;;;;;;;;4944324;28;20394;-82
2022/11/17 02:29:24;;;;;;;17.45;11.65;;;;;;;;;;4951510;28;20085;-82
2022/11/17 02:31:50;;;;;;;19.27;12.18;;;;;;;;;;4943681;28;20029;-82
2022/11/17 02:34:31;;;;;;;18.25;12.05;;;;;;;;;;4954520;28;20043;-79
2022/11/17 02:37:09;;;;;;;20.00;12.98;;;;;;;;;;4953117;28;20113;-79
2022/11/17 02:39:40;;;;;;;22.70;12.85;;;;;;;;;;4951860;28;20094;-78
2022/11/17 02:42:10;;;;;;;19.90;12.48;;;;;;;;;;4950600;28;20043;-80
2022/11/17 02:44:45;;;;;;;21.10;13.50;;;;;;;;;;4966394;28;20038;-78
2022/11/17 02:47:18;;;;;;;17.17;12.73;;;;;;;;;;4951573;28;20031;-79
2022/11/17 02:49:47;;;;;;;22.40;13.40;;;;;;;;;;4951868;28;20498;-80
2022/11/17 02:52:14;;;;;;;23.58;14.30;;;;;;;;;;4944692;28;20130;-78
2022/11/17 02:54:40;;;;;;;21.50;13.73;;;;;;;;;;4950266;28;20067;-79
2022/11/17 02:57:26;;;;;;;20.35;14.27;;;;;;;;;;4945276;28;20083;-80
2022/11/17 02:59:52;;;;;;;23.60;13.07;;;;;;;;;;4960570;28;20031;-79
2022/11/17 03:02:26;;;;;;;19.38;12.75;;;;;;;;;;4960403;28;20059;-79
2022/11/17 03:04:59;;;;;;;18.83;13.23;;;;;;;;;;4944829;28;20038;-79
2022/11/17 03:07:34;;;;;;;22.48;14.10;;;;;;;;;;4948816;28;20465;-79
2022/11/17 03:10:00;;;;;;;17.00;13.85;;;;;;;;;;4920037;29;20135;-79
2022/11/17 03:12:29;;;;;;;18.95;13.30;;;;;;;;;;4922151;29;20039;-79
2022/11/17 03:15:08;;;;;;;21.90;13.52;;;;;;;;;;4934503;29;20028;-79
2022/11/17 03:17:51;;;;;;;27.42;14.23;;;;;;;;;;4924140;29;20538;-80
2022/11/17 03:20:41;;;;;;;19.52;13.45;;;;;;;;;;4912662;29;20128;-79
2022/11/17 03:23:10;;;;;;;20.20;13.77;;;;;;;;;;4900799;29;20051;-79
2022/11/17 03:25:38;;;;;;;18.92;11.70;;;;;;;;;;4929965;29;20047;-79
2022/11/17 03:28:07;;;;;;;24.15;13.20;;;;;;;;;;4934426;29;20270;-81
2022/11/17 03:30:38;;;;;;;21.60;13.38;;;;;;;;;;4940647;29;20028;-80
2022/11/17 03:33:08;;;;;;;18.27;11.10;;;;;;;;;;4920038;29;20122;-79
2022/11/17 03:35:35;;;;;;;20.13;14.40;;;;;;;;;;4948184;29;20032;-80
2022/11/17 03:38:07;;;;;;;16.23;10.80;;;;;;;;;;4928350;29;20378;-80
2022/11/17 03:40:35;;;;;;;19.45;12.93;;;;;;;;;;4933350;29;20020;-80
2022/11/17 03:43:04;;;;;;;22.92;14.70;;;;;;;;;;4928253;29;20032;-81
2022/11/17 03:45:35;;;;;;;21.63;14.43;;;;;;;;;;4930435;29;20044;-80
2022/11/17 03:48:04;;;;;;;21.48;13.95;;;;;;;;;;4915820;29;20032;-80
2022/11/17 03:50:35;;;;;;;22.35;15.95;;;;;;;;;;4930917;29;20528;-80
2022/11/17 03:53:02;;;;;;;24.35;14.63;;;;;;;;;;4946209;29;20596;-80
2022/11/17 03:55:33;;;;;;;24.00;14.23;;;;;;;;;;4923813;29;20046;-80
2022/11/17 03:58:05;;;;;;;17.10;12.35;;;;;;;;;;4933876;29;20545;-81
2022/11/17 04:00:32;;;;;;;18.50;13.77;;;;;;;;;;4925699;29;20028;-81
2022/11/17 04:02:58;;;;;;;22.08;12.50;;;;;;;;;;4929747;29;20036;-80
2022/11/17 04:05:25;;;;;;;22.25;12.95;;;;;;;;;;4926716;29;20385;-80
2022/11/17 04:07:51;;;;;;;20.38;13.52;;;;;;;;;;4924132;29;20366;-79
2022/11/17 04:10:18;;;;;;;23.55;13.60;;;;;;;;;;4944153;28;20054;-81
2022/11/17 04:18:14;;;;;;;21.35;12.88;;;;;;;;;;4952342;29;20034;-79
2022/11/17 04:20:41;;;;;;;18.13;12.32;;;;;;;;;;4944036;28;20035;-79
2022/11/17 04:23:10;;;;;;;18.00;12.38;;;;;;;;;;4957083;28;20058;-80
2022/11/17 04:28:35;;;;;;;17.27;11.40;;;;;;;;;;4955102;28;20134;-80
2022/11/17 04:31:05;;;;;;;17.00;11.40;;;;;;;;;;4946245;29;20405;-80
2022/11/17 04:33:31;;;;;;;18.58;11.23;;;;;;;;;;4932377;29;20042;-79
2022/11/17 04:35:57;;;;;;;17.60;11.60;;;;;;;;;;4954523;28;20035;-79
2022/11/17 04:38:23;;;;;;;14.45;10.88;;;;;;;;;;4946456;28;20141;-79
2022/11/17 04:43:34;;;;;;;17.08;11.70;;;;;;;;;;4953712;28;20070;-79
2022/11/17 04:46:00;;;;;;;15.27;9.65;;;;;;;;;;4956075;28;20027;-78
2022/11/17 04:48:27;;;;;;;17.20;11.77;;;;;;;;;;4964150;28;20042;-79
2022/11/17 04:50:53;;;;;;;12.05;9.90;;;;;;;;;;4949434;28;20542;-78
2022/11/17 04:53:19;;;;;;;16.95;11.48;;;;;;;;;;4971078;28;20372;-78
2022/11/17 04:55:46;;;;;;;12.18;9.90;;;;;;;;;;4957955;28;20090;-78
2022/11/17 04:58:12;;;;;;;11.65;8.40;;;;;;;;;;4965848;28;20042;-78
2022/11/17 05:00:38;;;;;;;13.70;9.60;;;;;;;;;;4951627;28;20019;-78
2022/11/17 05:03:04;;;;;;;16.10;10.60;;;;;;;;;;4948344;28;20032;-78
2022/11/17 05:05:30;;;;;;;13.13;9.77;;;;;;;;;;4939683;28;20042;-78
2022/11/17 05:07:56;;;;;;;13.07;10.73;;;;;;;;;;4953763;28;20472;-79
2022/11/17 05:13:23;;;;;;;14.70;12.05;;;;;;;;;;4900010;29;20058;-78
2022/11/17 05:18:34;;;;;;;15.95;10.68;;;;;;;;;;4931968;29;20099;-79
2022/11/17 05:21:01;;;;;;;13.60;10.35;;;;;;;;;;4932744;29;20040;-79
2022/11/17 05:26:12;;;;;;;12.20;10.60;;;;;;;;;;4929268;29;20084;-85
2022/11/17 05:28:38;;;;;;;12.27;9.90;;;;;;;;;;4927563;29;20035;-79
2022/11/17 05:31:05;;;;;;;12.65;10.20;;;;;;;;;;4929809;29;20044;-83
2022/11/17 05:33:31;;;;;;;14.77;9.82;;;;;;;;;;4933421;29;20182;-81
2022/11/17 05:35:57;;;;;;;16.27;12.60;;;;;;;;;;4925197;29;20051;-83
2022/11/17 05:38:23;;;;;;;16.60;10.77;;;;;;;;;;4930516;29;20027;-82
2022/11/17 05:40:49;;;;;;;16.70;9.95;;;;;;;;;;4929864;29;20043;-82
2022/11/17 05:43:15;;;;;;;13.65;10.82;;;;;;;;;;4942506;29;20035;-82
2022/11/17 05:45:41;;;;;;;15.00;10.55;;;;;;;;;;4926701;29;20123;-83
2022/11/17 05:48:07;;;;;;;11.60;10.02;;;;;;;;;;4939424;29;20048;-81
2022/11/17 05:50:35;;;;;;;14.90;10.95;;;;;;;;;;4934137;29;20047;-81
2022/11/17 05:53:01;;;;;;;11.38;9.90;;;;;;;;;;4927763;29;20392;-81
2022/11/17 05:55:27;;;;;;;11.82;9.85;;;;;;;;;;4944752;29;20046;-84
2022/11/17 05:57:54;;;;;;;12.57;9.00;;;;;;;;;;4934996;29;20040;-84
2022/11/17 06:00:21;;;;;;;11.90;9.90;;;;;;;;;;4929276;29;20127;-83
2022/11/17 06:02:49;;;;;;;11.15;9.10;;;;;;;;;;4935161;29;20038;-84
2022/11/17 06:05:15;;;;;;;12.85;10.35;;;;;;;;;;4928878;29;20027;-82
2022/11/17 06:07:41;;;;;;;12.63;10.30;;;;;;;;;;4947067;29;20047;-83
2022/11/17 06:10:08;;;;;;;17.52;10.90;;;;;;;;;;4951896;28;20142;-83
2022/11/17 06:12:34;;;;;;;10.13;8.98;;;;;;;;;;4955445;28;20039;-82
2022/11/17 06:15:00;;;;;;;13.07;9.40;;;;;;;;;;4958581;28;20053;-82
2022/11/17 06:17:34;;;;;;;13.00;9.70;;;;;;;;;;4953411;28;20027;-80
2022/11/17 06:20:09;;;;;;;12.82;9.38;;;;;;;;;;4948656;28;20127;-81
2022/11/17 06:22:35;;;;;;;11.32;9.30;;;;;;;;;;4950442;28;20026;-80
2022/11/17 06:25:02;;;;;;;9.50;8.50;;;;;;;;;;4953131;28;20046;-80
2022/11/17 06:27:30;;;;;;;10.27;9.10;;;;;;;;;;4956621;28;20056;-79
2022/11/17 06:29:58;;;;;;;11.57;8.55;;;;;;;;;;4953760;29;20031;-80
2022/11/17 06:32:24;;;;;;;12.10;9.20;;;;;;;;;;4959056;28;20489;-80
2022/11/17 06:34:50;;;;;;;13.05;8.65;;;;;;;;;;4946296;28;20043;-79
2022/11/17 06:37:16;;;;;;;10.25;9.00;;;;;;;;;;4950893;28;20039;-79
2022/11/17 06:39:42;;;;;;;11.05;7.22;;;;;;;;;;4942088;28;24776;-79
2022/11/17 06:42:08;;;;;;;9.13;7.95;;;;;;;;;;4954603;28;20042;-80
2022/11/17 06:44:34;;;;;;;9.52;7.63;;;;;;;;;;4952080;28;20062;-79
2022/11/17 06:47:01;;;;;;;9.60;6.70;;;;;;;;;;4935954;29;20031;-79
2022/11/17 06:49:27;;;;;;;9.35;8.23;;;;;;;;;;4948332;28;20034;-79
2022/11/17 06:51:54;;;;;;;8.80;7.53;;;;;;;;;;4954757;28;20034;-81
2022/11/17 06:54:20;;;;;;;8.68;7.00;;;;;;;;;;4942028;28;20023;-81
2022/11/17 06:56:48;;;;;;;9.63;7.90;;;;;;;;;;4939819;28;20038;-78
2022/11/17 06:59:14;;;;;;;10.25;7.85;;;;;;;;;;4962658;28;21014;-78
2022/11/17 07:01:41;;;;;;;9.45;7.50;;;;;;;;;;4951450;28;20066;-77
2022/11/17 07:04:07;;;;;;;8.05;6.32;;;;;;;;;;4949197;28;20031;-77
2022/11/17 07:06:36;;;;;;;7.85;7.05;;;;;;;;;;4963297;28;20130;-78
2022/11/17 07:09:02;;;;;;;11.13;6.95;;;;;;;;;;4954829;28;20055;-77
2022/11/17 07:11:28;;;;;;;7.25;6.40;;;;;;;;;;4951005;28;20039;-82
2022/11/17 07:13:54;;;;;;;7.85;6.97;;;;;;;;;;4948071;28;20035;-79
2022/11/17 07:16:20;;;;;;;7.93;6.68;;;;;;;;;;4934532;28;20038;-77
2022/11/17 07:18:46;;;;;;;19.40;13.48;;;;;;;;;;4944891;28;20035;-76
2022/11/17 07:21:13;;;;;;;7.97;6.95;;;;;;;;;;4958910;28;20369;-75
2022/11/17 07:23:40;;;;;;;8.52;7.57;;;;;;;;;;4955422;28;20915;-77
2022/11/17 07:26:06;;;;;;;9.35;7.07;;;;;;;;;;4951920;29;20015;-79
2022/11/17 07:28:33;;;;;;;9.70;6.40;;;;;;;;;;4962428;28;20498;-81
2022/11/17 07:31:06;;;;;;;7.82;6.32;;;;;;;;;;4951571;28;20077;-78
2022/11/17 07:33:33;;;;;;;9.57;6.47;;;;;;;;;;4961082;28;20031;-77
2022/11/17 07:36:09;;;;;;;8.57;7.72;;;;;;;;;;4956773;28;20392;-78
2022/11/17 07:38:36;;;;;;;8.23;7.40;;;;;;;;;;4949729;28;20082;-77
2022/11/17 07:41:03;;;;;;;7.93;7.13;;;;;;;;;;4955513;28;20023;-80
2022/11/17 07:43:29;;;;;;;10.25;7.43;;;;;;;;;;4958720;28;20038;-78
2022/11/17 07:45:55;;;;;;;7.65;6.90;;;;;;;;;;4965236;28;20034;-78
2022/11/17 07:48:21;;;;;;;7.85;6.93;;;;;;;;;;4947769;28;20042;-77
2022/11/17 07:50:47;;;;;;;7.97;7.07;;;;;;;;;;4951150;28;20461;-78
2022/11/17 07:53:14;;;;;;;7.65;6.57;;;;;;;;;;4945777;28;20552;-80
2022/11/17 07:55:40;;;;;;;7.70;6.90;;;;;;;;;;4941106;29;20058;-79
2022/11/17 07:58:06;;;;;;;7.00;6.30;;;;;;;;;;4951719;28;20037;-77
2022/11/17 08:00:32;;;;;;;12.13;6.72;;;;;;;;;;4961609;28;20031;-82
2022/11/17 08:03:02;;;;;;;10.73;6.78;;;;;;;;;;4966411;28;20483;-77
2022/11/17 08:05:29;;;;;;;7.38;5.80;;;;;;;;;;4946074;28;20031;-78
2022/11/17 08:07:56;;;;;;;6.75;5.97;;;;;;;;;;4952553;28;20400;-79
2022/11/17 08:10:25;;;;;;;7.25;6.43;;;;;;;;;;4928870;29;20661;-77
2022/11/17 08:12:52;;;;;;;8.57;6.28;;;;;;;;;;4949902;28;20035;-77
2022/11/17 08:15:18;;;;;;;7.38;6.40;;;;;;;;;;4964654;28;20082;-78
2022/11/17 08:17:44;;;;;;;6.93;6.13;;;;;;;;;;4946879;28;20163;-77
2022/11/17 08:20:11;;;;;;;9.00;6.13;;;;;;;;;;4953811;28;20246;-79
2022/11/17 08:22:37;;;;;;;7.28;5.95;;;;;;;;;;4960653;28;20062;-82
2022/11/17 08:25:03;;;;;;;6.05;5.45;;;;;;;;;;4950229;29;20122;-76
2022/11/17 08:27:29;;;;;;;7.03;6.30;;;;;;;;;;4928973;29;20047;-77
2022/11/17 08:29:55;;;;;;;6.20;5.60;;;;;;;;;;4943213;28;20056;-77
2022/11/17 08:32:21;;;;;;;8.93;6.00;;;;;;;;;;4949871;28;20031;-77
2022/11/17 08:34:47;;;;;;;6.80;6.10;;;;;;;;;;4949838;28;20039;-77
2022/11/17 08:37:17;;;;;;;7.38;5.90;;;;;;;;;;4950705;28;20042;-77
2022/11/17 08:39:43;;;;;;;6.68;5.90;;;;;;;;;;4946240;28;20039;-76
2022/11/17 08:42:09;;;;;;;6.88;6.20;;;;;;;;;;4969501;28;20027;-77
2022/11/17 08:44:35;;;;;;;6.93;6.13;;;;;;;;;;4947590;28;20329;-76
2022/11/17 08:47:01;;;;;;;6.88;5.63;;;;;;;;;;4933820;29;20036;-78
2022/11/17 08:49:27;;;;;;;7.30;6.00;;;;;;;;;;4944382;28;20042;-76
2022/11/17 08:51:53;;;;;;;5.18;4.68;;;;;;;;;;4949339;28;20027;-78
2022/11/17 08:54:19;;;;;;;6.95;6.25;;;;;;;;;;4943862;28;20039;-78
2022/11/17 08:56:45;;;;;;;6.85;6.10;;;;;;;;;;4971086;28;20027;-77
2022/11/17 08:59:12;;;;;;;6.60;5.50;;;;;;;;;;4954706;28;20057;-78
2022/11/17 09:01:39;;;;;;;7.25;6.40;;;;;;;;;;4960277;28;20031;-79
2022/11/17 09:04:05;;;;;;;7.70;6.20;;;;;;;;;;4945015;28;20460;-77
2022/11/17 09:06:31;;;;;;;6.90;6.05;;;;;;;;;;4965558;28;20085;-78
2022/11/17 09:08:57;;;;;;;8.00;6.78;;;;;;;;;;4948080;28;20050;-78
2022/11/17 09:11:24;;;;;;;7.90;6.20;;;;;;;;;;4926906;29;20512;-77
2022/11/17 09:13:50;;;;;;;8.07;7.05;;;;;;;;;;4928198;29;20036;-77
2022/11/17 09:16:16;;;;;;;7.43;6.63;;;;;;;;;;4921235;29;20051;-78
2022/11/17 09:18:42;;;;;;;6.65;5.95;;;;;;;;;;4931260;29;20066;-77
2022/11/17 09:21:14;;;;;;;7.45;6.68;;;;;;;;;;4926522;29;20028;-78
2022/11/17 09:23:40;;;;;;;9.18;7.00;;;;;;;;;;4932243;29;20043;-78
2022/11/17 09:26:07;;;;;;;6.72;5.88;;;;;;;;;;4905882;29;20024;-78
2022/11/17 09:28:34;;;;;;;8.45;6.50;;;;;;;;;;4931833;29;20027;-77
2022/11/17 09:31:04;;;;;;;8.52;7.55;;;;;;;;;;4925121;29;20031;-77
2022/11/17 09:33:30;;;;;;;8.32;6.65;;;;;;;;;;4921511;29;20172;-75
2022/11/17 09:35:57;;;;;;;7.72;6.53;;;;;;;;;;4936349;29;20063;-76
2022/11/17 09:38:23;;;;;;;7.25;6.55;;;;;;;;;;4915369;29;20127;-75
2022/11/17 09:40:49;;;;;;;7.78;6.97;;;;;;;;;;4922180;29;20020;-76
2022/11/17 09:43:25;;;;;;;10.02;6.53;;;;;;;;;;4936969;29;20175;-79
2022/11/17 09:45:54;;;;;;;9.35;6.28;;;;;;;;;;4926497;29;20094;-75
2022/11/17 09:48:28;;;;;;;12.43;6.93;;;;;;;;;;4932867;29;20028;-75
2022/11/17 09:50:55;;;;;;;11.40;7.97;;;;;;;;;;4931560;29;20373;-76
2022/11/17 09:53:29;;;;;;;11.05;6.53;;;;;;;;;;4908732;29;20079;-76
2022/11/17 09:56:00;;;;;;;10.10;6.10;;;;;;;;;;4923532;29;20024;-77
2022/11/17 09:58:43;;;;;;;9.10;8.10;;;;;;;;;;4926959;29;20036;-77
2022/11/17 10:01:17;;;;;;;8.57;6.72;;;;;;;;;;4931032;29;20489;-77
2022/11/17 10:03:43;;;;;;;7.68;6.68;;;;;;;;;;4936765;29;20024;-76
2022/11/17 10:06:12;;;;;;;8.38;6.40;;;;;;;;;;4931401;29;20036;-78
2022/11/17 10:08:57;;;;;;;8.43;6.53;;;;;;;;;;4933693;28;20540;-78
2022/11/17 10:11:30;;;;;;;8.68;6.70;;;;;;;;;;4939444;28;20079;-80
2022/11/17 10:13:56;;;;;;;7.88;6.55;;;;;;;;;;4954360;28;20031;-77
2022/11/17 10:16:23;;;;;;;6.68;6.00;;;;;;;;;;4946892;28;20031;-78
2022/11/17 10:18:49;;;;;;;7.43;6.10;;;;;;;;;;4953654;28;20039;-78
2022/11/17 10:21:15;;;;;;;6.28;5.68;;;;;;;;;;4945388;28;20381;-77
2022/11/17 10:23:45;;;;;;;8.02;6.70;;;;;;;;;;4958674;28;20098;-77
2022/11/17 10:26:12;;;;;;;10.30;6.15;;;;;;;;;;4951992;29;20476;-77
2022/11/17 10:28:38;;;;;;;6.78;6.00;;;;;;;;;;4952921;28;20023;-78
2022/11/17 10:31:10;;;;;;;7.72;5.38;;;;;;;;;;4950972;28;20027;-76
2022/11/17 10:33:38;;;;;;;5.55;5.00;;;;;;;;;;4956904;28;20320;-81
2022/11/17 10:36:06;;;;;;;9.48;6.00;;;;;;;;;;4934855;28;20103;-77
2022/11/17 10:38:32;;;;;;;7.95;5.60;;;;;;;;;;4936611;29;20294;-76
2022/11/17 10:41:01;;;;;;;8.45;5.63;;;;;;;;;;4948350;28;20099;-76
2022/11/17 10:43:29;;;;;;;6.95;5.75;;;;;;;;;;4959902;28;21406;-77
2022/11/17 10:46:07;;;;;;;7.10;6.15;;;;;;;;;;4952936;28;20028;-77
2022/11/17 10:48:37;;;;;;;15.20;9.13;;;;;;;;;;4950248;29;20043;-77
2022/11/17 10:51:10;;;;;;;7.35;6.38;;;;;;;;;;4948817;28;20027;-76
2022/11/17 10:53:37;;;;;;;8.60;6.47;;;;;;;;;;4967821;28;20031;-77
2022/11/17 10:56:20;;;;;;;8.85;7.05;;;;;;;;;;4944557;28;20123;-77
2022/11/17 10:58:57;;;;;;;5.80;5.28;;;;;;;;;;4951217;28;20050;-81
2022/11/17 11:01:32;;;;;;;6.10;5.15;;;;;;;;;;4955432;28;20027;-77
2022/11/17 11:03:58;;;;;;;6.80;5.50;;;;;;;;;;4954991;28;20117;-77
2022/11/17 11:06:26;;;;;;;8.52;5.45;;;;;;;;;;4948586;28;20118;-77
2022/11/17 11:09:01;;;;;;;5.95;5.35;;;;;;;;;;4953290;28;20122;-79
2022/11/17 11:11:42;;;;;;;6.18;5.35;;;;;;;;;;4955726;28;20023;-77
2022/11/17 11:14:27;;;;;;;10.50;7.03;;;;;;;;;;4970940;28;20034;-78
2022/11/17 11:16:54;;;;;;;6.72;5.88;;;;;;;;;;4943051;28;20034;-77
2022/11/17 11:19:20;;;;;;;6.95;5.82;;;;;;;;;;4952972;28;20067;-77
2022/11/17 11:21:55;;;;;;;8.65;6.30;;;;;;;;;;4956479;28;20027;-84
2022/11/17 11:24:23;;;;;;;5.88;5.20;;;;;;;;;;4955652;28;20031;-78
2022/11/17 11:26:56;;;;;;;6.60;5.90;;;;;;;;;;4954359;28;20432;-76
2022/11/17 11:29:29;;;;;;;7.80;6.53;;;;;;;;;;4945199;28;20030;-78
2022/11/17 11:31:55;;;;;;;6.93;5.80;;;;;;;;;;4957310;28;20027;-80
2022/11/17 11:34:40;;;;;;;6.55;5.88;;;;;;;;;;4960668;28;20039;-78
2022/11/17 11:37:10;;;;;;;7.57;5.70;;;;;;;;;;4948100;28;20034;-77
2022/11/17 11:39:39;;;;;;;7.85;6.20;;;;;;;;;;4959789;28;20042;-77
2022/11/17 11:42:08;;;;;;;7.65;6.32;;;;;;;;;;4951377;28;20404;-76
2022/11/17 11:44:34;;;;;;;7.45;6.20;;;;;;;;;;4944924;28;20065;-77
2022/11/17 11:47:15;;;;;;;6.43;5.57;;;;;;;;;;4952631;29;20095;-79
2022/11/17 11:50:03;;;;;;;8.52;6.05;;;;;;;;;;4948301;28;20026;-77
2022/11/17 11:52:35;;;;;;;6.70;5.35;;;;;;;;;;4954647;28;20043;-79
2022/11/17 11:55:16;;;;;;;5.97;5.23;;;;;;;;;;4950986;28;20047;-78
2022/11/17 11:57:49;;;;;;;8.95;4.97;;;;;;;;;;4946818;28;20381;-78
2022/11/17 12:00:16;;;;;;;9.18;5.13;;;;;;;;;;4942436;28;20038;-78
2022/11/17 12:02:42;;;;;;;5.38;4.82;;;;;;;;;;4955670;28;20041;-79
2022/11/17 12:05:46;;;;;;;5.03;3.88;;;;;;;;;;4957851;28;20038;-77
2022/11/17 12:08:36;;;;;;;4.80;4.25;;;;;;;;;;4893344;29;20489;-82
2022/11/17 12:13:52;;;;;;;4.50;3.80;;;;;;;;;;4924618;29;20135;-77
2022/11/17 12:16:19;;;;;;;4.25;3.85;;;;;;;;;;4943430;28;20032;-77
2022/11/17 12:18:45;;;;;;;4.25;3.40;;;;;;;;;;4952624;29;20040;-77
2022/11/17 12:21:12;;;;;;;4.70;3.38;;;;;;;;;;4953827;28;20027;-78
2022/11/17 12:23:38;;;;;;;4.03;3.63;;;;;;;;;;4953114;28;20019;-76
2022/11/17 12:26:04;;;;;;;5.18;4.05;;;;;;;;;;4945626;28;20449;-77
2022/11/17 12:28:40;;;;;;;3.90;3.58;;;;;;;;;;4950655;28;20043;-77
2022/11/17 12:31:06;;;;;;;4.38;3.67;;;;;;;;;;4941217;28;20117;-77
2022/11/17 12:33:51;;;;;;;5.97;3.58;;;;;;;;;;4963354;28;20416;-78
2022/11/17 12:36:23;;;;;;;4.45;3.67;;;;;;;;;;4951169;28;20475;-77
2022/11/17 12:38:49;;;;;;;6.50;4.28;;;;;;;;;;4951557;29;20278;-78
2022/11/17 12:41:35;;;;;;;6.45;4.38;;;;;;;;;;4955211;28;20031;-77
2022/11/17 12:44:20;;;;;;;7.32;4.50;;;;;;;;;;4949144;28;20050;-78
2022/11/17 12:46:46;;;;;;;7.38;4.65;;;;;;;;;;4960811;28;20045;-78
2022/11/17 12:49:23;;;;;;;5.88;4.13;;;;;;;;;;4949600;28;20039;-77
2022/11/17 12:51:57;;;;;;;8.82;4.93;;;;;;;;;;4932164;28;20357;-82
2022/11/17 12:54:27;;;;;;;5.97;4.28;;;;;;;;;;4947816;29;20369;-77
2022/11/17 12:56:53;;;;;;;6.93;4.45;;;;;;;;;;4951948;28;20032;-77
2022/11/17 12:59:22;;;;;;;7.68;4.45;;;;;;;;;;4931849;28;20115;-78
2022/11/17 13:02:14;;;;;;;8.00;5.78;;;;;;;;;;4949829;28;20023;-77
2022/11/17 13:04:45;;;;;;;6.28;5.47;;;;;;;;;;4952051;28;20054;-78
2022/11/17 13:07:21;;;;;;;11.65;5.60;;;;;;;;;;4945977;28;20035;-77
2022/11/17 13:09:52;;;;;;;9.23;6.40;;;;;;;;;;4945936;28;20679;-78
2022/11/17 13:12:22;;;;;;;9.20;5.93;;;;;;;;;;4930205;29;20031;-78
2022/11/17 13:14:55;;;;;;;10.35;5.60;;;;;;;;;;4932508;29;20473;-77
2022/11/17 13:17:25;;;;;;;7.40;5.78;;;;;;;;;;4933503;29;20070;-77
2022/11/17 13:19:59;;;;;;;7.57;5.40;;;;;;;;;;4926627;29;20477;-78
2022/11/17 13:22:25;;;;;;;8.18;5.15;;;;;;;;;;4917013;29;20032;-77
2022/11/17 13:24:52;;;;;;;9.98;6.10;;;;;;;;;;4931268;29;20028;-76
2022/11/17 13:27:29;;;;;;;8.48;5.35;;;;;;;;;;4933101;29;20035;-78
2022/11/17 13:30:14;;;;;;;14.35;6.93;;;;;;;;;;4937924;29;20046;-78
2022/11/17 13:32:40;;;;;;;11.27;7.40;;;;;;;;;;4923685;29;20045;-77
2022/11/17 13:35:26;;;;;;;18.63;9.20;;;;;;;;;;4944757;29;20032;-78
2022/11/17 13:38:02;;;;;;;14.23;9.13;;;;;;;;;;4920836;29;20122;-79
2022/11/17 13:40:29;;;;;;;17.77;7.97;;;;;;;;;;4935394;29;20027;-76
2022/11/17 13:42:55;;;;;;;12.60;6.50;;;;;;;;;;4908429;29;20503;-77
2022/11/17 13:45:21;;;;;;;15.38;8.07;;;;;;;;;;4931545;29;20347;-76
2022/11/17 13:47:48;;;;;;;28.08;10.32;;;;;;;;;;4942874;29;20492;-81
2022/11/17 13:50:20;;;;;;;17.25;9.27;;;;;;;;;;4945952;29;20055;-76
2022/11/17 13:52:46;;;;;;;12.55;5.50;;;;;;;;;;4926207;29;20035;-81
2022/11/17 13:55:17;;;;;;;9.93;5.03;;;;;;;;;;4930769;29;20091;-77
2022/11/17 13:57:52;;;;;;;5.07;2.90;;;;;;;;;;4930228;29;20382;-77
2022/11/17 14:00:18;;;;;;;12.70;4.03;;;;;;;;;;4918238;29;20043;-76
2022/11/17 14:02:55;;;;;;;11.00;2.72;;;;;;;;;;4936730;29;20040;-79
2022/11/17 14:05:23;;;;;;;8.50;2.50;;;;;;;;;;4952560;29;20035;-76
2022/11/17 14:07:49;;;;;;;8.98;2.63;;;;;;;;;;4908014;29;20032;-77
2022/11/17 14:10:19;;;;;;;5.75;2.70;;;;;;;;;;4934205;28;20067;-78
2022/11/17 14:12:50;;;;;;;12.38;3.85;;;;;;;;;;4945214;29;20036;-77
2022/11/17 14:15:19;;;;;;;7.55;3.42;;;;;;;;;;4930991;29;20039;-76
2022/11/17 14:17:49;;;;;;;10.80;2.58;;;;;;;;;;4926649;29;20638;-77
2022/11/17 14:20:34;;;;;;;6.18;2.22;;;;;;;;;;4927164;29;20253;-77
2022/11/17 14:23:00;;;;;;;10.30;2.53;;;;;;;;;;4935464;29;20069;-76
2022/11/17 14:25:28;;;;;;;8.18;2.63;;;;;;;;;;4945632;29;20023;-75
2022/11/17 14:27:54;;;;;;;8.70;2.80;;;;;;;;;;4939280;29;20039;-75
2022/11/17 14:30:20;;;;;;;6.05;2.20;;;;;;;;;;4925468;29;20126;-75
2022/11/17 14:32:46;;;;;;;9.18;2.67;;;;;;;;;;4925353;29;20047;-76
2022/11/17 14:35:13;;;;;;;4.03;2.28;;;;;;;;;;4933432;29;20036;-77
2022/11/17 14:37:39;;;;;;;8.48;2.30;;;;;;;;;;4913846;29;20042;-80
2022/11/17 14:40:06;;;;;;;3.58;2.88;;;;;;;;;;4934618;29;20046;-75
2022/11/17 14:42:32;;;;;;;8.63;2.35;;;;;;;;;;4945904;29;20022;-78
2022/11/17 14:44:58;;;;;;;5.82;2.28;;;;;;;;;;4934699;29;20437;-76
2022/11/17 14:47:24;;;;;;;7.00;2.38;;;;;;;;;;4930567;29;20595;-76
2022/11/17 14:49:51;;;;;;;8.05;2.17;;;;;;;;;;4933536;29;20028;-80
2022/11/17 14:52:18;;;;;;;3.80;2.10;;;;;;;;;;4934258;29;20031;-75
2022/11/17 14:54:44;;;;;;;6.30;1.95;;;;;;;;;;4928319;29;20075;-75
2022/11/17 14:57:10;;;;;;;4.88;2.38;;;;;;;;;;4935177;29;20040;-75
2022/11/17 14:59:36;;;;;;;5.75;2.97;;;;;;;;;;4932375;29;20066;-75
2022/11/17 15:02:03;;;;;;;7.20;2.25;;;;;;;;;;4927937;29;20032;-76
2022/11/17 15:04:29;;;;;;;5.05;1.80;;;;;;;;;;4934010;29;20474;-76
2022/11/17 15:06:55;;;;;;;8.27;2.55;;;;;;;;;;4929253;29;20036;-76
2022/11/17 15:09:23;;;;;;;6.55;2.30;;;;;;;;;;4944861;28;20055;-77
2022/11/17 15:11:50;;;;;;;7.20;2.30;;;;;;;;;;4930009;29;20038;-77